createdAt,value
2017-02-13T00:00:50.547Z,0
2017-02-13T00:01:50.542Z,0
2017-02-13T00:02:50.507Z,0
2017-02-13T00:03:50.508Z,0
2017-02-13T00:04:50.449Z,0
2017-02-13T00:05:50.433Z,0
2017-02-13T00:06:50.422Z,0
2017-02-13T00:07:50.379Z,0
2017-02-13T00:08:50.352Z,0
2017-02-13T00:09:50.334Z,0
2017-02-13T00:10:50.305Z,0
2017-02-13T00:11:50.300Z,0
2017-02-13T00:12:50.287Z,0
2017-02-13T00:13:50.239Z,0
2017-02-13T00:14:50.220Z,0
2017-02-13T00:15:50.213Z,0
2017-02-13T00:16:50.174Z,0
2017-02-13T00:17:49.777Z,0
2017-02-13T00:18:49.724Z,0
2017-02-13T00:19:49.719Z,0
2017-02-13T00:20:50.103Z,0
2017-02-13T00:21:50.067Z,0
2017-02-13T00:22:50.040Z,0
2017-02-13T00:23:49.609Z,0
2017-02-13T00:24:49.594Z,0
2017-02-13T00:25:50.158Z,0
2017-02-13T00:26:49.142Z,0
2017-02-13T00:27:49.909Z,0
2017-02-13T00:28:49.883Z,0
2017-02-13T00:29:49.879Z,0
2017-02-13T00:30:49.450Z,0
2017-02-13T00:31:49.445Z,0
2017-02-13T00:32:49.419Z,0
2017-02-13T00:33:49.374Z,0
2017-02-13T00:34:49.738Z,0
2017-02-13T00:35:49.746Z,0
2017-02-13T00:36:49.330Z,0
2017-02-13T00:37:49.691Z,0
2017-02-13T00:38:49.259Z,0
2017-02-13T00:39:49.629Z,0
2017-02-13T00:40:49.601Z,0
2017-02-13T00:41:49.577Z,0
2017-02-13T00:42:49.569Z,0
2017-02-13T00:43:49.535Z,0
2017-02-13T00:44:49.534Z,0
2017-02-13T00:45:49.507Z,0
2017-02-13T00:46:49.486Z,0
2017-02-13T00:47:49.054Z,0
2017-02-13T00:48:49.420Z,0
2017-02-13T00:49:49.411Z,0
2017-02-13T00:50:48.979Z,0
2017-02-13T00:51:48.939Z,0
2017-02-13T00:52:48.928Z,0
2017-02-13T00:53:49.305Z,0
2017-02-13T00:54:49.291Z,0
2017-02-13T00:55:49.248Z,0
2017-02-13T00:56:49.229Z,0
2017-02-13T00:57:48.801Z,0
2017-02-13T00:58:49.179Z,0
2017-02-13T00:59:49.162Z,0
2017-02-13T01:00:48.748Z,0
2017-02-13T01:01:49.124Z,0
2017-02-13T01:02:48.697Z,0
2017-02-13T01:03:49.063Z,0
2017-02-13T01:04:48.648Z,0
2017-02-13T01:05:49.014Z,0
2017-02-13T01:06:48.996Z,0
2017-02-13T01:07:48.961Z,0
2017-02-13T01:08:48.981Z,0
2017-02-13T01:09:48.519Z,0
2017-02-13T01:10:48.935Z,0
2017-02-13T01:11:48.896Z,0
2017-02-13T01:12:48.875Z,0
2017-02-13T01:13:48.855Z,0
2017-02-13T01:14:48.829Z,0
2017-02-13T01:15:48.390Z,0
2017-02-13T01:16:48.792Z,0
2017-02-13T01:17:48.748Z,0
2017-02-13T01:18:48.726Z,0
2017-02-13T01:19:48.681Z,0
2017-02-13T01:20:48.672Z,0
2017-02-13T01:21:48.655Z,0
2017-02-13T01:22:48.631Z,0
2017-02-13T01:23:48.612Z,0
2017-02-13T01:24:48.155Z,0
2017-02-13T01:25:48.541Z,0
2017-02-13T01:26:48.511Z,0
2017-02-13T01:27:48.515Z,0
2017-02-13T01:28:48.470Z,0
2017-02-13T01:29:48.463Z,0
2017-02-13T01:30:48.429Z,0
2017-02-13T01:31:48.398Z,0
2017-02-13T01:32:48.374Z,0
2017-02-13T01:33:48.358Z,0
2017-02-13T01:34:47.933Z,0
2017-02-13T01:35:48.313Z,0
2017-02-13T01:36:48.295Z,0
2017-02-13T01:37:48.265Z,0
2017-02-13T01:38:48.253Z,0
2017-02-13T01:39:48.242Z,0
2017-02-13T01:40:48.201Z,0
2017-02-13T01:41:48.158Z,0
2017-02-13T01:42:48.137Z,0
2017-02-13T01:43:47.735Z,0
2017-02-13T01:44:48.109Z,0
2017-02-13T01:45:47.688Z,0
2017-02-13T01:46:48.041Z,0
2017-02-13T01:47:48.015Z,0
2017-02-13T01:48:47.636Z,0
2017-02-13T01:49:48.010Z,0
2017-02-13T01:50:47.941Z,0
2017-02-13T01:51:47.934Z,0
2017-02-13T01:52:47.911Z,0
2017-02-13T01:53:47.875Z,0
2017-02-13T01:54:47.458Z,0
2017-02-13T01:55:47.840Z,0
2017-02-13T01:56:47.830Z,0
2017-02-13T01:57:47.409Z,0
2017-02-13T01:58:47.797Z,0
2017-02-13T01:59:47.761Z,0
2017-02-13T02:00:47.714Z,0
2017-02-13T02:01:47.741Z,0
2017-02-13T02:02:47.669Z,0
2017-02-13T02:03:47.669Z,0
2017-02-13T02:04:47.218Z,0
2017-02-13T02:05:47.598Z,0
2017-02-13T02:06:47.193Z,0
2017-02-13T02:07:47.574Z,0
2017-02-13T02:08:47.521Z,0
2017-02-13T02:09:47.124Z,0
2017-02-13T02:10:47.481Z,0
2017-02-13T02:11:47.091Z,0
2017-02-13T02:12:47.441Z,0
2017-02-13T02:13:47.418Z,0
2017-02-13T02:14:47.386Z,0
2017-02-13T02:15:47.389Z,0
2017-02-13T02:16:46.959Z,0
2017-02-13T02:17:47.322Z,0
2017-02-13T02:18:47.306Z,0
2017-02-13T02:19:47.275Z,0
2017-02-13T02:20:47.246Z,0
2017-02-13T02:21:47.231Z,0
2017-02-13T02:22:46.801Z,0
2017-02-13T02:23:47.173Z,0
2017-02-13T02:24:47.140Z,0
2017-02-13T02:25:47.337Z,0
2017-02-13T02:26:47.095Z,0
2017-02-13T02:27:47.080Z,0
2017-02-13T02:28:47.039Z,0
2017-02-13T02:29:47.037Z,0
2017-02-13T02:30:46.997Z,0
2017-02-13T02:31:46.988Z,0
2017-02-13T02:32:46.995Z,0
2017-02-13T02:33:46.967Z,0
2017-02-13T02:34:46.930Z,0
2017-02-13T02:35:46.881Z,0
2017-02-13T02:36:46.886Z,0
2017-02-13T02:37:46.842Z,0
2017-02-13T02:38:46.850Z,0
2017-02-13T02:39:46.788Z,0
2017-02-13T02:40:46.759Z,0
2017-02-13T02:41:46.738Z,0
2017-02-13T02:42:46.318Z,0
2017-02-13T02:43:46.714Z,0
2017-02-13T02:44:46.675Z,0
2017-02-13T02:45:46.671Z,0
2017-02-13T02:46:46.217Z,0
2017-02-13T02:47:46.610Z,0
2017-02-13T02:48:46.590Z,0
2017-02-13T02:49:46.551Z,0
2017-02-13T02:50:46.534Z,0
2017-02-13T02:51:46.495Z,0
2017-02-13T02:52:46.489Z,0
2017-02-13T02:53:46.461Z,0
2017-02-13T02:54:46.441Z,0
2017-02-13T02:55:46.401Z,0
2017-02-13T02:56:46.404Z,0
2017-02-13T02:57:46.364Z,0
2017-02-13T02:58:46.343Z,0
2017-02-13T02:59:46.325Z,0
2017-02-13T03:00:46.291Z,0
2017-02-13T03:01:46.254Z,0
2017-02-13T03:02:46.255Z,0
2017-02-13T03:03:46.226Z,0
2017-02-13T03:04:46.198Z,0
2017-02-13T03:05:45.806Z,0
2017-02-13T03:06:46.165Z,0
2017-02-13T03:07:46.151Z,0
2017-02-13T03:08:46.120Z,0
2017-02-13T03:09:46.087Z,0
2017-02-13T03:10:46.082Z,0
2017-02-13T03:11:46.043Z,0
2017-02-13T03:12:46.011Z,0
2017-02-13T03:13:46.020Z,0
2017-02-13T03:14:45.579Z,0
2017-02-13T03:15:45.936Z,0
2017-02-13T03:16:45.914Z,0
2017-02-13T03:17:45.486Z,0
2017-02-13T03:18:45.887Z,0
2017-02-13T03:19:45.832Z,0
2017-02-13T03:20:45.814Z,0
2017-02-13T03:21:45.797Z,0
2017-02-13T03:22:45.773Z,0
2017-02-13T03:23:45.754Z,0
2017-02-13T03:24:45.739Z,0
2017-02-13T03:25:45.758Z,0
2017-02-13T03:26:45.690Z,0
2017-02-13T03:27:45.650Z,0
2017-02-13T03:28:45.630Z,0
2017-02-13T03:29:45.630Z,0
2017-02-13T03:30:45.595Z,0
2017-02-13T03:31:45.598Z,0
2017-02-13T03:32:45.523Z,0
2017-02-13T03:33:45.511Z,0
2017-02-13T03:34:45.482Z,0
2017-02-13T03:35:45.457Z,0
2017-02-13T03:36:45.072Z,0
2017-02-13T03:37:45.417Z,0
2017-02-13T03:38:45.398Z,0
2017-02-13T03:39:45.370Z,0
2017-02-13T03:40:45.339Z,0
2017-02-13T03:41:44.918Z,0
2017-02-13T03:42:45.295Z,0
2017-02-13T03:43:45.271Z,0
2017-02-13T03:44:44.840Z,0
2017-02-13T03:45:45.230Z,0
2017-02-13T03:46:44.796Z,0
2017-02-13T03:47:45.186Z,0
2017-02-13T03:48:45.153Z,0
2017-02-13T03:49:45.130Z,0
2017-02-13T03:50:45.109Z,0
2017-02-13T03:51:45.084Z,0
2017-02-13T03:52:45.064Z,0
2017-02-13T03:53:45.061Z,0
2017-02-13T03:54:44.999Z,0
2017-02-13T03:55:44.980Z,0
2017-02-13T03:56:44.972Z,0
2017-02-13T03:57:44.951Z,0
2017-02-13T03:58:44.933Z,0
2017-02-13T03:59:44.916Z,0
2017-02-13T04:00:44.864Z,0
2017-02-13T04:01:44.843Z,0
2017-02-13T04:02:44.820Z,0
2017-02-13T04:03:44.787Z,0
2017-02-13T04:04:44.773Z,0
2017-02-13T04:05:44.728Z,0
2017-02-13T04:06:44.719Z,0
2017-02-13T04:07:44.713Z,0
2017-02-13T04:08:44.681Z,0
2017-02-13T04:09:44.655Z,0
2017-02-13T04:10:44.619Z,0
2017-02-13T04:11:44.596Z,0
2017-02-13T04:12:44.584Z,0
2017-02-13T04:13:44.552Z,0
2017-02-13T04:14:43.727Z,0
2017-02-13T04:15:44.503Z,0
2017-02-13T04:16:44.499Z,0
2017-02-13T04:17:44.470Z,0
2017-02-13T04:18:44.430Z,0
2017-02-13T04:19:44.020Z,0
2017-02-13T04:20:44.399Z,0
2017-02-13T04:21:43.976Z,0
2017-02-13T04:22:44.366Z,0
2017-02-13T04:23:44.326Z,0
2017-02-13T04:24:44.283Z,0
2017-02-13T04:25:44.089Z,0
2017-02-13T04:26:43.876Z,0
2017-02-13T04:27:44.239Z,0
2017-02-13T04:28:44.199Z,0
2017-02-13T04:29:44.163Z,0
2017-02-13T04:30:44.162Z,0
2017-02-13T04:31:44.129Z,0
2017-02-13T04:32:43.702Z,0
2017-02-13T04:33:43.678Z,0
2017-02-13T04:34:44.050Z,0
2017-02-13T04:35:43.626Z,0
2017-02-13T04:36:44.020Z,0
2017-02-13T04:37:43.580Z,0
2017-02-13T04:38:43.613Z,0
2017-02-13T04:39:43.935Z,0
2017-02-13T04:40:43.910Z,0
2017-02-13T04:41:43.895Z,0
2017-02-13T04:42:43.456Z,0
2017-02-13T04:43:43.841Z,0
2017-02-13T04:44:43.807Z,0
2017-02-13T04:45:43.403Z,0
2017-02-13T04:46:43.759Z,0
2017-02-13T04:47:43.753Z,0
2017-02-13T04:48:43.729Z,0
2017-02-13T04:49:43.301Z,0
2017-02-13T04:50:43.701Z,0
2017-02-13T04:51:43.643Z,0
2017-02-13T04:52:43.226Z,0
2017-02-13T04:53:43.620Z,0
2017-02-13T04:54:43.592Z,0
2017-02-13T04:55:43.554Z,0
2017-02-13T04:56:43.142Z,0
2017-02-13T04:57:43.511Z,0
2017-02-13T04:58:43.475Z,0
2017-02-13T04:59:43.452Z,0
2017-02-13T05:00:43.444Z,0
2017-02-13T05:01:43.436Z,0
2017-02-13T05:02:43.001Z,0
2017-02-13T05:03:43.373Z,0
2017-02-13T05:04:43.335Z,0
2017-02-13T05:05:43.333Z,0
2017-02-13T05:06:43.300Z,0
2017-02-13T05:07:43.261Z,0
2017-02-13T05:08:43.237Z,0
2017-02-13T05:09:43.217Z,0
2017-02-13T05:10:43.201Z,0
2017-02-13T05:11:43.194Z,0
2017-02-13T05:12:43.175Z,0
2017-02-13T05:13:43.137Z,0
2017-02-13T05:14:43.100Z,0
2017-02-13T05:15:43.083Z,0
2017-02-13T05:16:43.054Z,0
2017-02-13T05:17:43.025Z,0
2017-02-13T05:18:43.002Z,0
2017-02-13T05:19:42.979Z,0
2017-02-13T05:20:42.941Z,0
2017-02-13T05:21:42.528Z,0
2017-02-13T05:22:42.517Z,0
2017-02-13T05:23:42.902Z,0
2017-02-13T05:24:42.853Z,0
2017-02-13T05:25:42.842Z,0
2017-02-13T05:26:42.414Z,0
2017-02-13T05:27:42.798Z,0
2017-02-13T05:28:42.362Z,0
2017-02-13T05:29:42.742Z,0
2017-02-13T05:30:42.713Z,0
2017-02-13T05:31:42.691Z,0
2017-02-13T05:32:42.669Z,0
2017-02-13T05:33:42.644Z,0
2017-02-13T05:34:42.622Z,0
2017-02-13T05:35:42.600Z,0
2017-02-13T05:36:41.788Z,0
2017-02-13T05:37:42.542Z,0
2017-02-13T05:38:42.523Z,0
2017-02-13T05:39:42.510Z,0
2017-02-13T05:40:42.474Z,0
2017-02-13T05:41:42.463Z,0
2017-02-13T05:42:42.440Z,0
2017-02-13T05:43:42.415Z,0
2017-02-13T05:44:42.382Z,0
2017-02-13T05:45:42.357Z,0
2017-02-13T05:46:42.336Z,0
2017-02-13T05:47:42.331Z,0
2017-02-13T05:48:42.306Z,0
2017-02-13T05:49:41.866Z,0
2017-02-13T05:50:41.072Z,0
2017-02-13T05:51:41.820Z,0
2017-02-13T05:52:42.255Z,0
2017-02-13T05:53:41.759Z,0
2017-02-13T05:54:42.157Z,0
2017-02-13T05:55:42.116Z,0
2017-02-13T05:56:41.692Z,0
2017-02-13T05:57:42.099Z,0
2017-02-13T05:58:42.086Z,0
2017-02-13T05:59:42.047Z,0
2017-02-13T06:00:41.996Z,0
2017-02-13T06:01:42.002Z,0
2017-02-13T06:02:41.964Z,0
2017-02-13T06:03:41.563Z,0
2017-02-13T06:04:41.932Z,0
2017-02-13T06:05:41.891Z,0
2017-02-13T06:06:41.879Z,0
2017-02-13T06:07:41.454Z,0
2017-02-13T06:08:41.817Z,0
2017-02-13T06:09:41.794Z,0
2017-02-13T06:10:41.750Z,0
2017-02-13T06:11:41.738Z,0
2017-02-13T06:12:40.955Z,0
2017-02-13T06:13:41.704Z,0
2017-02-13T06:14:41.667Z,0
2017-02-13T06:15:41.270Z,0
2017-02-13T06:16:41.646Z,0
2017-02-13T06:17:41.636Z,0
2017-02-13T06:18:41.577Z,0
2017-02-13T06:19:41.574Z,0
2017-02-13T06:20:41.555Z,0
2017-02-13T06:21:41.542Z,0
2017-02-13T06:22:41.484Z,0
2017-02-13T06:23:41.489Z,0
2017-02-13T06:24:41.469Z,0
2017-02-13T06:25:41.643Z,0
2017-02-13T06:26:42.239Z,0
2017-02-13T06:27:41.417Z,0
2017-02-13T06:28:41.350Z,0
2017-02-13T06:29:40.942Z,0
2017-02-13T06:30:41.298Z,0
2017-02-13T06:31:40.869Z,0
2017-02-13T06:32:41.269Z,0
2017-02-13T06:33:41.274Z,0
2017-02-13T06:34:40.396Z,0
2017-02-13T06:35:41.219Z,0
2017-02-13T06:36:41.148Z,0
2017-02-13T06:37:41.120Z,0
2017-02-13T06:38:41.115Z,0
2017-02-13T06:39:41.070Z,0
2017-02-13T06:40:41.063Z,0
2017-02-13T06:41:41.019Z,0
2017-02-13T06:42:40.992Z,0
2017-02-13T06:43:40.990Z,0
2017-02-13T06:44:40.563Z,0
2017-02-13T06:45:40.920Z,5
2017-02-13T06:46:40.504Z,5
2017-02-13T06:47:40.883Z,5
2017-02-13T06:48:40.846Z,5
2017-02-13T06:49:40.429Z,5
2017-02-13T06:50:40.811Z,5
2017-02-13T06:51:40.788Z,5
2017-02-13T06:52:40.766Z,5
2017-02-13T06:53:40.351Z,5
2017-02-13T06:54:40.324Z,10
2017-02-13T06:55:40.697Z,10
2017-02-13T06:56:40.667Z,10
2017-02-13T06:57:40.257Z,10
2017-02-13T06:58:40.642Z,10
2017-02-13T06:59:40.609Z,10
2017-02-13T07:00:40.583Z,15
2017-02-13T07:01:40.583Z,15
2017-02-13T07:02:40.544Z,15
2017-02-13T07:03:40.485Z,15
2017-02-13T07:04:40.466Z,15
2017-02-13T07:05:40.069Z,15
2017-02-13T07:06:40.427Z,20
2017-02-13T07:07:40.394Z,20
2017-02-13T07:08:40.390Z,20
2017-02-13T07:09:40.362Z,20
2017-02-13T07:10:40.322Z,20
2017-02-13T07:11:40.320Z,25
2017-02-13T07:12:40.283Z,25
2017-02-13T07:13:40.276Z,25
2017-02-13T07:14:40.272Z,25
2017-02-13T07:15:40.211Z,25
2017-02-13T07:16:40.201Z,30
2017-02-13T07:17:40.179Z,30
2017-02-13T07:18:40.153Z,30
2017-02-13T07:19:40.112Z,30
2017-02-13T07:20:40.089Z,35
2017-02-13T07:21:40.088Z,35
2017-02-13T07:22:39.663Z,35
2017-02-13T07:23:40.028Z,35
2017-02-13T07:24:40.020Z,35
2017-02-13T07:25:39.994Z,40
2017-02-13T07:26:39.952Z,40
2017-02-13T07:27:39.944Z,40
2017-02-13T07:28:39.921Z,40
2017-02-13T07:29:39.895Z,40
2017-02-13T07:30:39.886Z,45
2017-02-13T07:31:39.838Z,45
2017-02-13T07:32:39.805Z,45
2017-02-13T07:33:39.792Z,45
2017-02-13T07:34:39.772Z,45
2017-02-13T07:35:39.748Z,50
2017-02-13T07:36:39.736Z,50
2017-02-13T07:37:39.691Z,50
2017-02-13T07:38:39.679Z,50
2017-02-13T07:39:39.663Z,55
2017-02-13T07:40:39.645Z,55
2017-02-13T07:41:39.602Z,55
2017-02-13T07:42:39.578Z,55
2017-02-13T07:43:39.155Z,55
2017-02-13T07:44:39.538Z,60
2017-02-13T07:45:53.835Z,60
2017-02-13T07:46:39.090Z,60
2017-02-13T07:47:39.499Z,60
2017-02-13T07:48:39.451Z,60
2017-02-13T07:49:39.435Z,65
2017-02-13T07:50:39.412Z,65
2017-02-13T07:51:39.424Z,65
2017-02-13T07:52:39.381Z,65
2017-02-13T07:53:38.944Z,70
2017-02-13T07:54:39.324Z,70
2017-02-13T07:55:38.884Z,70
2017-02-13T07:56:39.274Z,70
2017-02-13T07:57:39.271Z,70
2017-02-13T07:58:38.848Z,70
2017-02-13T07:59:38.827Z,75
2017-02-13T08:00:38.779Z,75
2017-02-13T08:01:38.751Z,75
2017-02-13T08:02:38.721Z,75
2017-02-13T08:03:39.101Z,80
2017-02-13T08:04:38.677Z,80
2017-02-13T08:05:39.047Z,80
2017-02-13T08:06:39.033Z,80
2017-02-13T08:07:38.205Z,80
2017-02-13T08:08:38.999Z,85
2017-02-13T08:09:38.968Z,85
2017-02-13T08:10:38.955Z,85
2017-02-13T08:11:38.530Z,85
2017-02-13T08:12:38.902Z,90
2017-02-13T08:13:38.874Z,90
2017-02-13T08:14:38.864Z,90
2017-02-13T08:15:38.832Z,90
2017-02-13T08:16:38.830Z,95
2017-02-13T08:17:38.781Z,95
2017-02-13T08:18:38.775Z,95
2017-02-13T08:19:38.779Z,95
2017-02-13T08:20:38.737Z,95
2017-02-13T08:21:38.704Z,95
2017-02-13T08:22:38.683Z,95
2017-02-13T08:23:38.649Z,100
2017-02-13T08:24:38.644Z,100
2017-02-13T08:25:38.820Z,100
2017-02-13T08:26:38.585Z,105
2017-02-13T08:27:38.212Z,105
2017-02-13T08:28:38.564Z,105
2017-02-13T08:29:38.529Z,110
2017-02-13T08:30:38.492Z,110
2017-02-13T08:31:38.104Z,110
2017-02-13T08:32:38.470Z,110
2017-02-13T08:33:38.433Z,115
2017-02-13T08:34:38.054Z,120
2017-02-13T08:35:37.982Z,120
2017-02-13T08:36:37.968Z,120
2017-02-13T08:37:37.983Z,120
2017-02-13T08:38:38.342Z,120
2017-02-13T08:39:38.373Z,135
2017-02-13T08:40:38.287Z,175
2017-02-13T08:41:38.277Z,215
2017-02-13T08:42:38.240Z,220
2017-02-13T08:43:38.217Z,190
2017-02-13T08:44:37.839Z,155
2017-02-13T08:45:38.193Z,160
2017-02-13T08:46:38.158Z,190
2017-02-13T08:47:38.135Z,210
2017-02-13T08:48:38.115Z,225
2017-02-13T08:49:38.082Z,210
2017-02-13T08:50:37.680Z,170
2017-02-13T08:51:37.643Z,160
2017-02-13T08:52:37.646Z,170
2017-02-13T08:53:38.023Z,175
2017-02-13T08:54:38.083Z,195
2017-02-13T08:55:37.585Z,190
2017-02-13T08:56:37.556Z,155
2017-02-13T08:57:37.942Z,150
2017-02-13T08:58:37.898Z,170
2017-02-13T08:59:37.909Z,265
2017-02-13T09:00:37.886Z,365
2017-02-13T09:01:37.859Z,410
2017-02-13T09:02:37.856Z,405
2017-02-13T09:03:37.808Z,370
2017-02-13T09:04:37.804Z,360
2017-02-13T09:05:37.774Z,360
2017-02-13T09:06:36.997Z,360
2017-02-13T09:07:37.729Z,355
2017-02-13T09:08:37.324Z,340
2017-02-13T09:09:37.693Z,340
2017-02-13T09:10:37.695Z,280
2017-02-13T09:11:37.672Z,230
2017-02-13T09:12:37.655Z,295
2017-02-13T09:13:37.653Z,305
2017-02-13T09:14:37.635Z,225
2017-02-13T09:15:37.226Z,210
2017-02-13T09:16:37.601Z,205
2017-02-13T09:17:37.597Z,200
2017-02-13T09:18:36.782Z,215
2017-02-13T09:19:37.162Z,240
2017-02-13T09:20:37.536Z,245
2017-02-13T09:21:37.126Z,275
2017-02-13T09:22:37.566Z,250
2017-02-13T09:23:36.697Z,220
2017-02-13T09:24:37.467Z,245
2017-02-13T09:25:37.471Z,225
2017-02-13T09:26:37.444Z,295
2017-02-13T09:27:37.446Z,330
2017-02-13T09:28:37.422Z,275
2017-02-13T09:29:37.384Z,220
2017-02-13T09:30:37.373Z,215
2017-02-13T09:31:37.363Z,260
2017-02-13T09:32:37.342Z,290
2017-02-13T09:33:36.914Z,245
2017-02-13T09:34:37.329Z,220
2017-02-13T09:35:37.313Z,230
2017-02-13T09:36:37.302Z,230
2017-02-13T09:37:37.265Z,215
2017-02-13T09:38:37.279Z,200
2017-02-13T09:39:37.245Z,315
2017-02-13T09:40:37.237Z,370
2017-02-13T09:41:36.811Z,275
2017-02-13T09:42:37.205Z,220
2017-02-13T09:43:36.774Z,210
2017-02-13T09:44:37.165Z,335
2017-02-13T09:45:37.158Z,565
2017-02-13T09:46:37.152Z,615
2017-02-13T09:47:36.734Z,600
2017-02-13T09:48:36.734Z,535
2017-02-13T09:49:37.133Z,305
2017-02-13T09:50:37.074Z,215
2017-02-13T09:51:37.078Z,390
2017-02-13T09:52:37.063Z,495
2017-02-13T09:53:37.031Z,395
2017-02-13T09:54:37.047Z,350
2017-02-13T09:55:36.610Z,510
2017-02-13T09:56:36.202Z,480
2017-02-13T09:57:36.978Z,460
2017-02-13T09:58:36.202Z,520
2017-02-13T09:59:36.937Z,430
2017-02-13T10:00:36.944Z,270
2017-02-13T10:01:36.525Z,225
2017-02-13T10:02:36.955Z,235
2017-02-13T10:03:36.500Z,230
2017-02-13T10:04:36.865Z,235
2017-02-13T10:05:36.890Z,275
2017-02-13T10:06:36.854Z,440
2017-02-13T10:07:36.832Z,640
2017-02-13T10:08:36.424Z,585
2017-02-13T10:09:36.409Z,445
2017-02-13T10:10:36.430Z,340
2017-02-13T10:11:36.780Z,330
2017-02-13T10:12:36.360Z,385
2017-02-13T10:13:36.342Z,440
2017-02-13T10:14:36.760Z,575
2017-02-13T10:15:36.742Z,630
2017-02-13T10:16:36.698Z,545
2017-02-13T10:17:36.681Z,425
2017-02-13T10:18:36.271Z,435
2017-02-13T10:19:36.257Z,385
2017-02-13T10:20:36.259Z,250
2017-02-13T10:21:36.253Z,245
2017-02-13T10:22:36.633Z,340
2017-02-13T10:23:36.248Z,490
2017-02-13T10:24:36.608Z,605
2017-02-13T10:25:36.778Z,675
2017-02-13T10:26:36.176Z,650
2017-02-13T10:27:36.555Z,645
2017-02-13T10:28:36.137Z,515
2017-02-13T10:29:36.519Z,490
2017-02-13T10:30:36.508Z,480
2017-02-13T10:31:36.498Z,440
2017-02-13T10:32:36.498Z,540
2017-02-13T10:33:36.100Z,655
2017-02-13T10:34:36.455Z,540
2017-02-13T10:35:36.460Z,475
2017-02-13T10:36:36.432Z,510
2017-02-13T10:37:36.440Z,490
2017-02-13T10:38:35.610Z,570
2017-02-13T10:39:36.400Z,565
2017-02-13T10:40:36.388Z,465
2017-02-13T10:41:36.375Z,320
2017-02-13T10:42:36.381Z,275
2017-02-13T10:43:36.345Z,315
2017-02-13T10:44:36.357Z,365
2017-02-13T10:45:36.398Z,350
2017-02-13T10:46:36.306Z,295
2017-02-13T10:47:36.300Z,340
2017-02-13T10:48:36.310Z,470
2017-02-13T10:49:36.276Z,495
2017-02-13T10:50:36.303Z,320
2017-02-13T10:51:36.299Z,415
2017-02-13T10:52:36.257Z,550
2017-02-13T10:53:36.241Z,480
2017-02-13T10:54:36.226Z,310
2017-02-13T10:55:36.212Z,265
2017-02-13T10:56:36.201Z,240
2017-02-13T10:57:36.200Z,235
2017-02-13T10:58:35.825Z,305
2017-02-13T10:59:36.223Z,390
2017-02-13T11:00:35.781Z,450
2017-02-13T11:01:36.173Z,445
2017-02-13T11:02:36.143Z,450
2017-02-13T11:03:36.141Z,430
2017-02-13T11:04:36.111Z,475
2017-02-13T11:05:36.091Z,470
2017-02-13T11:06:36.095Z,490
2017-02-13T11:07:35.701Z,535
2017-02-13T11:08:36.079Z,560
2017-02-13T11:09:36.070Z,645
2017-02-13T11:10:36.050Z,675
2017-02-13T11:11:36.041Z,645
2017-02-13T11:12:36.014Z,665
2017-02-13T11:13:36.038Z,700
2017-02-13T11:14:36.010Z,615
2017-02-13T11:15:35.602Z,565
2017-02-13T11:16:35.999Z,550
2017-02-13T11:17:35.980Z,605
2017-02-13T11:18:35.958Z,650
2017-02-13T11:19:35.188Z,615
2017-02-13T11:20:35.989Z,580
2017-02-13T11:21:35.932Z,615
2017-02-13T11:22:35.547Z,600
2017-02-13T11:23:35.562Z,530
2017-02-13T11:24:35.923Z,585
2017-02-13T11:25:35.500Z,675
2017-02-13T11:26:35.942Z,605
2017-02-13T11:27:35.890Z,655
2017-02-13T11:28:35.875Z,775
2017-02-13T11:29:35.524Z,755
2017-02-13T11:30:35.871Z,610
2017-02-13T11:31:35.911Z,470
2017-02-13T11:32:35.850Z,465
2017-02-13T11:33:35.822Z,470
2017-02-13T11:34:35.834Z,470
2017-02-13T11:35:35.832Z,495
2017-02-13T11:36:35.819Z,605
2017-02-13T11:37:35.832Z,565
2017-02-13T11:38:35.850Z,595
2017-02-13T11:39:35.794Z,615
2017-02-13T11:40:35.769Z,595
2017-02-13T11:41:35.373Z,620
2017-02-13T11:42:35.800Z,740
2017-02-13T11:43:34.958Z,785
2017-02-13T11:44:35.348Z,810
2017-02-13T11:45:35.748Z,810
2017-02-13T11:46:35.342Z,750
2017-02-13T11:47:35.356Z,675
2017-02-13T11:48:34.952Z,740
2017-02-13T11:49:35.710Z,815
2017-02-13T11:50:35.701Z,820
2017-02-13T11:51:35.303Z,800
2017-02-13T11:52:35.708Z,785
2017-02-13T11:53:35.289Z,845
2017-02-13T11:54:35.665Z,765
2017-02-13T11:55:35.662Z,755
2017-02-13T11:56:35.664Z,810
2017-02-13T11:57:35.653Z,785
2017-02-13T11:58:34.891Z,810
2017-02-13T11:59:35.745Z,875
2017-02-13T12:00:35.663Z,870
2017-02-13T12:01:35.661Z,870
2017-02-13T12:02:35.656Z,735
2017-02-13T12:03:34.863Z,790
2017-02-13T12:04:35.638Z,890
2017-02-13T12:05:35.629Z,870
2017-02-13T12:06:35.211Z,895
2017-02-13T12:07:34.827Z,910
2017-02-13T12:08:35.596Z,970
2017-02-13T12:09:35.597Z,990
2017-02-13T12:10:35.601Z,975
2017-02-13T12:11:35.607Z,965
2017-02-13T12:12:35.603Z,965
2017-02-13T12:13:35.598Z,960
2017-02-13T12:14:35.578Z,950
2017-02-13T12:15:35.580Z,940
2017-02-13T12:16:35.576Z,935
2017-02-13T12:17:35.574Z,950
2017-02-13T12:18:35.548Z,950
2017-02-13T12:19:35.549Z,940
2017-02-13T12:20:35.552Z,920
2017-02-13T12:21:35.549Z,920
2017-02-13T12:22:35.542Z,925
2017-02-13T12:23:35.553Z,925
2017-02-13T12:24:35.577Z,935
2017-02-13T12:25:36.142Z,920
2017-02-13T12:26:35.117Z,935
2017-02-13T12:27:35.535Z,940
2017-02-13T12:28:35.536Z,945
2017-02-13T12:29:35.505Z,955
2017-02-13T12:30:35.518Z,950
2017-02-13T12:31:35.514Z,925
2017-02-13T12:32:35.490Z,925
2017-02-13T12:33:35.515Z,925
2017-02-13T12:34:35.496Z,905
2017-02-13T12:35:35.501Z,900
2017-02-13T12:36:34.705Z,885
2017-02-13T12:37:35.507Z,890
2017-02-13T12:38:35.112Z,900
2017-02-13T12:39:35.484Z,925
2017-02-13T12:40:35.469Z,950
2017-02-13T12:41:35.064Z,955
2017-02-13T12:42:35.073Z,955
2017-02-13T12:43:35.463Z,930
2017-02-13T12:45:41.618Z,895
2017-02-13T12:45:52.985Z,895
2017-02-13T12:46:52.522Z,895
2017-02-13T12:47:52.916Z,910
2017-02-13T12:48:52.923Z,900
2017-02-13T12:49:52.562Z,910
2017-02-13T12:50:52.917Z,915
2017-02-13T12:51:52.913Z,900
2017-02-13T12:52:52.899Z,895
2017-02-13T12:53:52.900Z,895
2017-02-13T12:54:52.512Z,900
2017-02-13T12:55:52.906Z,910
2017-02-13T12:56:52.889Z,915
2017-02-13T12:57:52.904Z,905
2017-02-13T12:58:52.885Z,890
2017-02-13T12:59:52.512Z,880
2017-02-13T13:00:52.885Z,865
2017-02-13T13:01:52.883Z,860
2017-02-13T13:02:52.858Z,860
2017-02-13T13:03:52.889Z,855
2017-02-13T13:04:52.484Z,850
2017-02-13T13:05:52.474Z,855
2017-02-13T13:06:52.898Z,855
2017-02-13T13:07:52.082Z,855
2017-02-13T13:08:52.859Z,870
2017-02-13T13:09:52.476Z,865
2017-02-13T13:10:52.851Z,870
2017-02-13T13:11:52.881Z,860
2017-02-13T13:12:52.845Z,850
2017-02-13T13:13:52.067Z,845
2017-02-13T13:14:52.463Z,845
2017-02-13T13:15:52.857Z,835
2017-02-13T13:16:52.844Z,810
2017-02-13T13:17:52.846Z,815
2017-02-13T13:18:52.431Z,815
2017-02-13T13:19:52.819Z,800
2017-02-13T13:20:52.834Z,780
2017-02-13T13:21:52.832Z,790
2017-02-13T13:22:52.840Z,805
2017-02-13T13:23:52.410Z,820
2017-02-13T13:24:52.820Z,810
2017-02-13T13:25:52.823Z,770
2017-02-13T13:26:52.800Z,765
2017-02-13T13:27:52.807Z,765
2017-02-13T13:28:52.406Z,770
2017-02-13T13:29:52.388Z,780
2017-02-13T13:30:52.780Z,775
2017-02-13T13:31:52.773Z,770
2017-02-13T13:32:52.790Z,760
2017-02-13T13:33:52.781Z,755
2017-02-13T13:34:52.773Z,760
2017-02-13T13:35:52.769Z,745
2017-02-13T13:36:52.776Z,730
2017-02-13T13:37:52.775Z,740
2017-02-13T13:38:52.351Z,730
2017-02-13T13:39:52.377Z,720
2017-02-13T13:40:52.761Z,730
2017-02-13T13:41:52.741Z,725
2017-02-13T13:42:52.776Z,725
2017-02-13T13:43:52.738Z,730
2017-02-13T13:44:52.775Z,740
2017-02-13T13:45:52.731Z,740
2017-02-13T13:46:52.735Z,725
2017-02-13T13:47:52.726Z,720
2017-02-13T13:48:52.720Z,715
2017-02-13T13:49:52.733Z,700
2017-02-13T13:50:52.748Z,690
2017-02-13T13:51:52.711Z,690
2017-02-13T13:52:52.701Z,685
2017-02-13T13:53:52.699Z,690
2017-02-13T13:54:52.304Z,685
2017-02-13T13:55:52.685Z,675
2017-02-13T13:56:52.699Z,660
2017-02-13T13:57:52.698Z,665
2017-02-13T13:58:52.692Z,665
2017-02-13T13:59:52.679Z,660
2017-02-13T14:00:52.676Z,655
2017-02-13T14:01:52.683Z,640
2017-02-13T14:02:52.688Z,635
2017-02-13T14:03:52.675Z,650
2017-02-13T14:04:52.661Z,635
2017-02-13T14:05:52.679Z,610
2017-02-13T14:06:52.703Z,605
2017-02-13T14:07:52.660Z,580
2017-02-13T14:08:52.682Z,580
2017-02-13T14:09:52.256Z,580
2017-02-13T14:10:52.636Z,575
2017-02-13T14:11:52.643Z,570
2017-02-13T14:12:52.628Z,545
2017-02-13T14:13:52.639Z,530
2017-02-13T14:14:52.228Z,525
2017-02-13T14:15:52.609Z,520
2017-02-13T14:16:52.208Z,505
2017-02-13T14:17:52.596Z,495